^^
Station Historical Data
Daily Summary for April 19, 2017 Units:  English    Metric   Both
« Previous Day
Next Day »
Daily Weekly Monthly Yearly Custom
  High: Low: Average:
Temperature: 52.7 °F 41.3 °F 45.8 °F
Dew Point: 44.3 °F 36.8 °F 39.8 °F
Humidity: 95% 64% 80%
Wind Speed: 7.0mph 0.0mph 1.4mph
Wind Gust: 17.0mph - -
Wind- - South
Pressure: 30.54 in 30.24 in -
Precipitation: 0.16 in    
Historical Graphs
 
 
Tabular Data for April 19, 2017
Time Temperature Dew Point Pressure Wind Wind Speed Wind Gust Humidity Rainfall Rate (Hourly) Conditions
00:00 45.0 °F 39.9 °F 30.51 in Calm   10.0 mph 82% 0.00 in SCT
00:15 45.3 °F 39.8 °F 30.52 in Calm   7.0 mph 81% 0.00 in BKN
00:30 45.4 °F 39.6 °F 30.53 in South 2.0 mph 8.0 mph 80% 0.00 in BKN
01:00 44.8 °F 38.6 °F 30.53 in Calm   5.0 mph 79% 0.00 in BKN
02:15 43.0 °F 38.8 °F 30.54 in Calm   3.0 mph 85% 0.00 in FEW
02:30 42.8 °F 38.6 °F 30.53 in Calm   6.0 mph 85% 0.00 in FEW
02:45 42.7 °F 38.5 °F 30.52 in Calm   4.0 mph 85% 0.00 in FEW
03:00 42.6 °F 38.4 °F 30.52 in Calm   4.0 mph 85% 0.00 in FEW
03:15 42.7 °F 38.5 °F 30.52 in North 1.0 mph 8.0 mph 85% 0.00 in OVC
03:30 42.8 °F 38.6 °F 30.53 in SW 1.0 mph 4.0 mph 85% 0.00 in OVC
03:45 42.9 °F 38.1 °F 30.53 in North 1.0 mph 7.0 mph 83% 0.00 in OVC
04:00 42.9 °F 37.7 °F 30.53 in NE 1.0 mph 6.0 mph 82% 0.00 in OVC
04:15 42.6 °F 37.5 °F 30.54 in Calm   4.0 mph 82% 0.00 in SCT
04:30 42.3 °F 37.2 °F 30.54 in Calm   3.0 mph 82% 0.00 in SCT
04:45 42.0 °F 36.9 °F 30.54 in North 1.0 mph 3.0 mph 82% 0.00 in SCT
05:00 41.9 °F 36.8 °F 30.53 in Calm   3.0 mph 82% 0.00 in SCT
05:15 41.7 °F 36.9 °F 30.52 in Calm   2.0 mph 83% 0.00 in BKN
05:30 41.7 °F 36.9 °F 30.53 in Calm   3.0 mph 83% 0.00 in BKN
05:45 41.7 °F 36.9 °F 30.53 in Calm   4.0 mph 83% 0.00 in BKN
06:00 41.6 °F 36.8 °F 30.53 in Calm   4.0 mph 83% 0.00 in BKN
06:15 41.5 °F 37.0 °F 30.53 in Calm   2.0 mph 84% 0.00 in BKN
06:30 41.3 °F 36.8 °F 30.53 in Calm   5.0 mph 84% 0.00 in BKN
06:45 41.3 °F 37.1 °F 30.53 in Calm   4.0 mph 85% 0.00 in BKN
07:00 41.5 °F 37.3 °F 30.54 in Calm   4.0 mph 85% 0.00 in BKN
07:15 41.7 °F 37.2 °F 30.54 in North 1.0 mph 3.0 mph 84% 0.00 in BKN
07:30 42.0 °F 37.5 °F 30.54 in ENE 1.0 mph 4.0 mph 84% 0.00 in BKN
07:45 42.4 °F 37.6 °F 30.54 in SE 2.0 mph 9.0 mph 83% 0.00 in BKN
08:00 43.1 °F 37.6 °F 30.54 in SSW 1.0 mph 5.0 mph 81% 0.00 in BKN
08:15 43.5 °F 37.8 °F 30.54 in SE 2.0 mph 8.0 mph 80% 0.00 in BKN
08:30 43.7 °F 37.3 °F 30.54 in South 1.0 mph 7.0 mph 78% 0.00 in BKN
08:45 44.4 °F 38.0 °F 30.53 in Calm   8.0 mph 78% 0.00 in BKN
09:00 44.5 °F 37.4 °F 30.52 in SE 3.0 mph 7.0 mph 76% 0.00 in BKN
09:15 44.8 °F 37.7 °F 30.52 in SW 2.0 mph 10.0 mph 76% 0.00 in BKN
09:30 45.6 °F 38.2 °F 30.52 in SSE 2.0 mph 12.0 mph 75% 0.00 in BKN
09:45 45.7 °F 37.5 °F 30.52 in South 1.0 mph 7.0 mph 73% 0.00 in BKN
10:00 45.6 °F 37.4 °F 30.53 in South 5.0 mph 12.0 mph 73% 0.00 in BKN
10:15 46.3 °F 37.8 °F 30.52 in SSE 1.0 mph 9.0 mph 72% 0.00 in BKN
10:30 46.7 °F 37.8 °F 30.51 in South 3.0 mph 17.0 mph 71% 0.00 in BKN
10:45 47.2 °F 38.3 °F 30.50 in SSW 3.0 mph 10.0 mph 71% 0.00 in BKN
11:00 48.1 °F 38.4 °F 30.50 in SW 2.0 mph 11.0 mph 69% 0.00 in BKN
11:15 47.3 °F 38.0 °F 30.50 in SSW 2.0 mph 12.0 mph 70% 0.00 in BKN
11:30 48.2 °F 38.1 °F 30.50 in South 2.0 mph 12.0 mph 68% 0.00 in BKN
11:45 48.2 °F 38.5 °F 30.50 in SW 2.0 mph 14.0 mph 69% 0.00 in BKN
12:00 48.7 °F 38.2 °F 30.48 in SE 3.0 mph 10.0 mph 67% 0.00 in BKN
12:15 48.9 °F 38.4 °F 30.47 in SSW 5.0 mph 12.0 mph 67% 0.00 in BKN
12:30 49.7 °F 38.4 °F 30.46 in SSE 2.0 mph 14.0 mph 65% 0.00 in BKN
12:45 49.9 °F 38.6 °F 30.45 in SSE 2.0 mph 14.0 mph 65% 0.00 in BKN
13:00 50.2 °F 38.9 °F 30.45 in SSE 3.0 mph 12.0 mph 65% 0.00 in BKN
13:15 51.5 °F 39.7 °F 30.44 in SSW 6.0 mph 14.0 mph 64% 0.00 in SCT
13:30 51.7 °F 39.9 °F 30.43 in SSW 5.0 mph 12.0 mph 64% 0.00 in SCT
13:45 51.6 °F 40.2 °F 30.43 in SW 7.0 mph 15.0 mph 65% 0.00 in SCT
14:00 51.2 °F 40.6 °F 30.42 in SSE 2.0 mph 12.0 mph 67% 0.00 in SCT
14:15 52.3 °F 41.3 °F 30.41 in SW 2.0 mph 7.0 mph 66% 0.00 in SCT
14:30 52.6 °F 41.2 °F 30.41 in SSE 2.0 mph 13.0 mph 65% 0.00 in SCT
14:45 52.6 °F 40.8 °F 30.40 in SSW 3.0 mph 10.0 mph 64% 0.00 in SCT
15:00 52.5 °F 41.1 °F 30.40 in SSW 2.0 mph 10.0 mph 65% 0.00 in SCT
15:15 52.1 °F 41.1 °F 30.39 in SW 5.0 mph 12.0 mph 66% 0.00 in BKN
15:30 52.7 °F 40.9 °F 30.38 in SW 5.0 mph 13.0 mph 64% 0.00 in BKN
15:45 52.0 °F 41.0 °F 30.37 in SW 5.0 mph 12.0 mph 66% 0.00 in BKN
16:00 50.9 °F 40.7 °F 30.37 in SSW 1.0 mph 8.0 mph 68% 0.00 in BKN
16:15 49.7 °F 40.3 °F 30.36 in SW 2.0 mph 10.0 mph 70% 0.00 in BKN
16:30 49.0 °F 40.0 °F 30.36 in SSW 1.0 mph 10.0 mph 71% 0.00 in BKN
16:45 48.3 °F 40.4 °F 30.36 in South 5.0 mph 12.0 mph 74% 0.00 in BKN
17:00 47.9 °F 40.7 °F 30.36 in South 2.0 mph 9.0 mph 76% 0.00 in BKN
17:15 47.3 °F 41.2 °F 30.36 in SE 1.0 mph 10.0 mph 79% 0.00 in BKN
17:30 46.4 °F 41.5 °F 30.37 in South 2.0 mph 5.0 mph 83% 0.01 in RA
17:45 45.8 °F 41.5 °F 30.37 in Calm   7.0 mph 85% 0.01 in RA
18:00 45.6 °F 42.0 °F 30.36 in SW 1.0 mph 4.0 mph 87% 0.00 in BKN
18:15 45.5 °F 41.9 °F 30.35 in SE 1.0 mph 6.0 mph 87% 0.00 in -RA
18:30 45.3 °F 42.0 °F 30.33 in South 1.0 mph 7.0 mph 88% 0.01 in -RA
18:45 45.1 °F 41.8 °F 30.33 in SW 2.0 mph 9.0 mph 88% 0.00 in -RA
19:00 45.1 °F 41.8 °F 30.33 in SSE 2.0 mph 8.0 mph 88% 0.00 in -RA
19:15 45.1 °F 42.1 °F 30.33 in WNW 1.0 mph 4.0 mph 89% 0.00 in -RA
19:30 45.1 °F 42.1 °F 30.33 in Calm   5.0 mph 89% 0.00 in -RA
19:45 45.2 °F 42.2 °F 30.33 in Calm   3.0 mph 89% 0.00 in -RA
20:00 45.1 °F 42.1 °F 30.32 in Calm   6.0 mph 89% 0.01 in -RA
20:15 44.9 °F 42.2 °F 30.31 in Calm   3.0 mph 90% 0.00 in -RA
20:30 44.9 °F 42.5 °F 30.30 in Calm   3.0 mph 91% 0.00 in -RA
20:45 44.9 °F 42.4 °F 30.31 in SSW 1.0 mph 3.0 mph 91% 0.02 in -RA
21:00 44.9 °F 42.7 °F 30.30 in South 1.0 mph 5.0 mph 92% 0.05 in -RA
21:15 44.8 °F 42.6 °F 30.31 in Calm   2.0 mph 92% 0.01 in OVC
21:30 44.9 °F 43.0 °F 30.30 in South 1.0 mph 3.0 mph 93% 0.01 in RA
21:45 44.9 °F 43.0 °F 30.28 in Calm   5.0 mph 93% 0.01 in RA
22:00 44.9 °F 43.3 °F 30.27 in Calm   5.0 mph 94% 0.02 in RA
22:15 44.9 °F 43.3 °F 30.28 in Calm   3.0 mph 94% 0.00 in -RA
22:30 45.1 °F 43.4 °F 30.26 in Calm   4.0 mph 94% 0.00 in -RA
22:45 45.2 °F 43.6 °F 30.26 in SW 1.0 mph 4.0 mph 94% 0.00 in -RA
23:00 45.3 °F 43.7 °F 30.26 in Calm   3.0 mph 94% 0.00 in -RA
23:15 45.4 °F 44.1 °F 30.26 in Calm   3.0 mph 95% 0.00 in -RA
23:30 45.5 °F 44.2 °F 30.25 in Calm   2.0 mph 95% 0.00 in -RA
23:45 45.6 °F 44.3 °F 30.24 in Calm   1.0 mph 95% 0.00 in -RA
TarryTown NY Weather
Compliments of Weather Underground - 1.5 mb